Time;durP1;ratioP1;P1;durP2;ratioP2;P2;SDS_P1;SDS_P2;PMS_P1;PMS_P2;Temp;Humidity;BMP_temperature;BMP_pressure;BME280_temperature;BME280_humidity;BME280_pressure;Samples;Min_cycle;Max_cycle;Signal;HPM_P1;HPM_P2
2020/12/09 00:01:57;;;;;;;;;;;;;;;2.15;100.00;96998.13;5101633;28;20532;-73
2020/12/09 00:04:23;;;;;;;4.80;4.05;;;;;;;2.03;100.00;96992.97;5109289;28;19920;-74
2020/12/09 00:06:49;;;;;;;4.65;3.72;;;;;;;2.10;100.00;96988.13;5111498;28;20023;-74
2020/12/09 00:09:18;;;;;;;6.28;4.25;;;;;;;2.12;100.00;96986.00;5111634;28;20036;-73
2020/12/09 00:11:44;;;;;;;6.13;3.85;;;;;;;2.19;100.00;96990.31;5110499;28;20027;-74
2020/12/09 00:14:10;;;;;;;6.20;3.95;;;;;;;2.19;100.00;96987.63;5132590;28;20008;-85
2020/12/09 00:16:35;;;;;;;;;;;;;;;2.15;100.00;96990.03;5136433;28;20050;-82
2020/12/09 00:19:03;;;;;;;4.73;4.00;;;;;;;2.11;100.00;96978.97;5135286;28;19974;-87
2020/12/09 00:21:30;;;;;;;4.18;3.65;;;;;;;2.00;100.00;96976.53;5134590;28;20041;-84
2020/12/09 00:23:55;;;;;;;3.88;3.47;;;;;;;2.03;100.00;96971.41;5124337;28;20027;-75
2020/12/09 00:26:23;;;;;;;4.28;3.00;;;;;;;2.03;100.00;96966.03;5111042;28;20019;-75
2020/12/09 00:28:49;;;;;;;6.43;3.97;;;;;;;2.10;100.00;96974.66;5111186;28;20488;-75
2020/12/09 00:31:16;;;;;;;4.13;3.60;;;;;;;2.08;100.00;96979.50;5106442;28;20082;-75
2020/12/09 00:33:42;;;;;;;5.07;3.83;;;;;;;2.01;100.00;96962.75;5099196;28;20054;-76
2020/12/09 00:36:08;;;;;;;3.67;3.30;;;;;;;2.21;100.00;96974.69;5089645;28;20031;-74
2020/12/09 00:38:33;;;;;;;4.43;3.30;;;;;;;2.08;100.00;96974.13;5091011;28;20469;-75
2020/12/09 00:40:59;;;;;;;5.03;3.33;;;;;;;2.07;100.00;96977.88;5090993;28;20024;-75
2020/12/09 00:43:24;;;;;;;4.13;2.95;;;;;;;2.07;100.00;96983.28;5089529;28;20074;-76
2020/12/09 00:45:50;;;;;;;5.20;3.95;;;;;;;2.04;100.00;96977.59;5089345;28;20028;-75
2020/12/09 00:48:15;;;;;;;;;;;;;;;2.15;100.00;96977.38;5090929;28;20040;-75
2020/12/09 00:50:40;;;;;;;4.15;3.13;;;;;;;2.15;100.00;96979.25;5090615;28;19916;-75
2020/12/09 00:53:06;;;;;;;4.57;3.08;;;;;;;2.09;100.00;96970.34;5090932;28;20032;-74
2020/12/09 00:55:31;;;;;;;2.85;2.63;;;;;;;2.02;100.00;96960.88;5090796;28;20028;-74
2020/12/09 00:57:57;;;;;;;;;;;;;;;2.05;100.00;96969.25;5090890;28;20021;-74
2020/12/09 01:00:22;;;;;;;3.65;2.95;;;;;;;2.10;100.00;96965.75;5090686;28;19915;-75
2020/12/09 01:02:47;;;;;;;4.07;2.60;;;;;;;2.10;100.00;96977.34;5090781;28;20035;-75
2020/12/09 01:05:13;;;;;;;;;;;;;;;2.16;100.00;96981.66;5089728;28;20024;-76
2020/12/09 01:07:39;;;;;;;3.50;2.17;;;;;;;2.15;100.00;96982.78;5089186;28;20056;-74
2020/12/09 01:10:07;;;;;;;3.17;2.28;;;;;;;2.24;100.00;96966.88;5088746;28;20035;-75
2020/12/09 01:12:33;;;;;;;2.88;2.38;;;;;;;2.24;100.00;96971.44;5089130;28;20115;-75
2020/12/09 01:14:58;;;;;;;4.80;2.67;;;;;;;2.38;100.00;96973.34;5090377;28;20114;-76
2020/12/09 01:17:24;;;;;;;3.95;2.45;;;;;;;2.33;100.00;96983.34;5089051;28;20603;-75
2020/12/09 01:19:49;;;;;;;4.55;2.40;;;;;;;2.33;100.00;96967.16;5089152;28;20432;-75
2020/12/09 01:22:14;;;;;;;2.90;2.00;;;;;;;2.34;100.00;96968.78;5090305;28;20086;-74
2020/12/09 01:24:40;;;;;;;2.42;2.13;;;;;;;2.32;100.00;96966.34;5090426;28;20119;-75
2020/12/09 01:27:05;;;;;;;3.22;1.98;;;;;;;2.26;100.00;96964.69;5090359;28;20085;-75
2020/12/09 01:29:30;;;;;;;;;;;;;;;2.27;100.00;96971.72;5090784;28;20354;-76
2020/12/09 01:32:00;;;;;;;4.07;2.53;;;;;;;2.38;100.00;96973.34;5089173;28;19935;-75
2020/12/09 01:34:26;;;;;;;3.20;2.40;;;;;;;2.42;100.00;96962.84;5090669;28;20027;-75
2020/12/09 01:36:52;;;;;;;3.15;2.70;;;;;;;2.42;100.00;96962.84;5091694;28;20111;-75
2020/12/09 01:39:18;;;;;;;3.55;2.65;;;;;;;2.52;100.00;96946.66;5094181;28;20029;-75
2020/12/09 01:41:44;;;;;;;2.55;1.95;;;;;;;2.60;100.00;96936.13;5092416;28;20530;-75
2020/12/09 01:44:10;;;;;;;1.77;1.65;;;;;;;2.48;100.00;96941.00;5092233;28;20044;-75
2020/12/09 01:46:36;;;;;;;0.98;0.98;;;;;;;2.50;100.00;96941.56;5092570;28;20027;-75
2020/12/09 01:49:02;;;;;;;2.28;1.42;;;;;;;2.54;100.00;96944.50;5093790;28;20465;-75
2020/12/09 01:51:29;;;;;;;2.03;1.85;;;;;;;2.48;100.00;96940.19;5093115;28;20031;-76
2020/12/09 01:53:56;;;;;;;1.25;1.17;;;;;;;2.45;100.00;96929.94;5094170;28;20024;-75
2020/12/09 01:56:23;;;;;;;3.60;1.95;;;;;;;2.48;100.00;96945.56;5093809;28;20032;-74
2020/12/09 01:58:49;;;;;;;2.38;2.05;;;;;;;2.44;100.00;96942.63;5092434;28;20032;-74
2020/12/09 02:01:15;;;;;;;2.92;2.33;;;;;;;2.45;100.00;96935.31;5093735;28;20028;-75
2020/12/09 02:03:41;;;;;;;3.92;3.10;;;;;;;2.39;100.00;96934.50;5094278;28;20020;-75
2020/12/09 02:06:06;;;;;;;5.60;2.15;;;;;;;2.33;100.00;96938.28;5093355;28;20111;-75
2020/12/09 02:08:33;;;;;;;2.88;2.10;;;;;;;2.25;100.00;96940.72;5091621;28;20366;-75
2020/12/09 02:10:59;;;;;;;3.15;2.17;;;;;;;2.31;100.00;96934.25;5093245;28;20024;-75
2020/12/09 02:13:28;;;;;;;4.43;2.80;;;;;;;2.30;100.00;96935.31;5093002;28;20366;-75
2020/12/09 02:15:55;;;;;;;4.75;3.10;;;;;;;2.25;100.00;96933.44;5091540;28;20473;-75
2020/12/09 02:18:21;;;;;;;3.40;2.58;;;;;;;2.28;100.00;96940.19;5092487;28;20381;-75
2020/12/09 02:20:46;;;;;;;4.75;2.60;;;;;;;2.34;100.00;96933.72;5093250;28;20167;-76
2020/12/09 02:23:11;;;;;;;3.97;2.63;;;;;;;2.33;100.00;96929.38;5093055;28;20032;-76
2020/12/09 02:25:37;;;;;;;3.72;2.60;;;;;;;2.37;100.00;96925.88;5092623;28;20024;-76
2020/12/09 02:28:02;;;;;;;3.53;2.70;;;;;;;2.27;100.00;96917.78;5093238;28;20035;-75
2020/12/09 02:30:28;;;;;;;;;;;;;;;2.17;100.00;96907.78;5093837;28;20081;-76
2020/12/09 02:32:53;;;;;;;3.05;2.75;;;;;;;2.19;100.00;96885.16;5092965;28;19912;-75
2020/12/09 02:35:18;;;;;;;;;;;;;;;2.29;100.00;96898.66;5093378;28;20073;-75
2020/12/09 02:37:44;;;;;;;4.18;2.58;;;;;;;2.34;100.00;96891.34;5092949;28;19916;-74
2020/12/09 02:40:09;;;;;;;;;;;;;;;2.25;100.00;96892.16;5093266;28;20035;-76
2020/12/09 02:42:34;;;;;;;5.32;2.97;;;;;;;2.32;100.00;96884.63;5092771;28;19931;-75
2020/12/09 02:45:00;;;;;;;8.95;4.07;;;;;;;2.29;100.00;96893.25;5091420;28;20026;-75
2020/12/09 02:47:25;;;;;;;;;;;;;;;2.35;100.00;96890.25;5092803;28;20415;-75
2020/12/09 02:49:51;;;;;;;3.75;2.65;;;;;;;2.39;100.00;96882.44;5092624;28;19951;-75
2020/12/09 02:52:16;;;;;;;;;;;;;;;2.51;100.00;96889.19;5092043;28;20465;-75
2020/12/09 02:54:42;;;;;;;4.78;2.65;;;;;;;2.41;100.00;96891.09;5094767;28;19920;-75
2020/12/09 02:57:07;;;;;;;;;;;;;;;2.51;100.00;96891.06;5105998;28;20081;-75
2020/12/09 02:59:32;;;;;;;5.10;3.25;;;;;;;2.54;100.00;96885.94;5098461;28;19916;-75
2020/12/09 03:01:58;;;;;;;6.65;3.75;;;;;;;2.56;100.00;96889.19;5112785;28;20031;-75
2020/12/09 03:04:23;;;;;;;4.25;2.38;;;;;;;2.55;100.00;96892.16;5112643;28;20026;-75
2020/12/09 03:06:48;;;;;;;;;;;;;;;2.59;100.00;96898.66;5112897;28;20089;-76
2020/12/09 03:09:14;;;;;;;4.82;3.25;;;;;;;2.54;100.00;96896.75;5112683;28;19915;-76
2020/12/09 03:11:39;;;;;;;4.10;2.90;;;;;;;2.65;100.00;96902.97;5112455;28;20034;-75
2020/12/09 03:14:05;;;;;;;4.88;2.65;;;;;;;2.58;100.00;96887.03;5110895;28;20042;-75
2020/12/09 03:16:30;;;;;;;;;;;;;;;2.58;100.00;96880.81;5111612;28;20477;-75
2020/12/09 03:18:56;;;;;;;3.75;2.60;;;;;;;2.59;100.00;96871.66;5110696;28;19915;-76
2020/12/09 03:21:21;;;;;;;2.72;2.45;;;;;;;2.57;100.00;96868.41;5111419;28;20504;-75
2020/12/09 03:23:46;;;;;;;;;;;;;;;2.66;100.00;96866.81;5111300;28;20036;-75
2020/12/09 03:26:12;;;;;;;5.38;2.15;;;;;;;2.64;100.00;96863.53;5112359;28;19964;-74
2020/12/09 03:28:37;;;;;;;2.90;2.53;;;;;;;2.66;100.00;96861.41;5112832;28;20028;-75
2020/12/09 03:31:05;;;;;;;4.55;2.75;;;;;;;2.77;100.00;96873.78;5112576;28;20036;-75
2020/12/09 03:33:31;;;;;;;3.75;2.25;;;;;;;2.81;100.00;96864.06;5112338;28;20080;-75
2020/12/09 03:35:57;;;;;;;4.03;2.33;;;;;;;2.82;100.00;96875.69;5111113;28;20129;-75
2020/12/09 03:38:23;;;;;;;4.07;2.63;;;;;;;2.79;100.00;96868.91;5112062;28;20023;-76
2020/12/09 03:40:48;;;;;;;4.07;2.97;;;;;;;2.75;100.00;96867.88;5111220;28;20020;-75
2020/12/09 03:43:17;;;;;;;2.85;2.08;;;;;;;2.83;100.00;96871.88;5111110;28;20050;-76
2020/12/09 03:45:42;;;;;;;2.95;2.35;;;;;;;2.86;100.00;96872.16;5113073;28;20035;-75
2020/12/09 03:48:08;;;;;;;2.13;1.83;;;;;;;2.92;100.00;96871.06;5106148;28;20392;-75
2020/12/09 03:50:33;;;;;;;3.17;2.88;;;;;;;2.81;100.00;96858.66;5091211;28;20421;-75
2020/12/09 03:52:59;;;;;;;4.68;2.60;;;;;;;2.87;100.00;96854.88;5092679;28;20105;-75
2020/12/09 03:55:25;;;;;;;7.93;3.90;;;;;;;2.75;100.00;96851.66;5091881;28;20031;-74
2020/12/09 03:57:51;;;;;;;5.10;3.22;;;;;;;2.94;100.00;96866.22;5092566;28;20020;-75
2020/12/09 04:00:16;;;;;;;;;;;;;;;2.90;100.00;96859.72;5102913;28;20031;-75
2020/12/09 04:02:42;;;;;;;3.67;2.63;;;;;;;2.88;100.00;96864.56;5113228;28;19912;-75
2020/12/09 04:05:08;;;;;;;3.28;2.55;;;;;;;2.88;100.00;96859.19;5111974;28;20007;-76
2020/12/09 04:07:33;;;;;;;4.70;3.13;;;;;;;2.92;100.00;96854.03;5114415;28;20034;-75
2020/12/09 04:09:59;;;;;;;3.45;2.83;;;;;;;2.93;100.00;96855.66;5102772;27;20386;-82
2020/12/09 04:12:24;;;;;;;2.67;1.88;;;;;;;2.96;100.00;96855.13;5117455;28;20510;-75
2020/12/09 04:14:53;;;;;;;2.55;1.85;;;;;;;3.05;100.00;96851.59;5110148;28;20058;-73
2020/12/09 04:17:19;;;;;;;2.15;1.83;;;;;;;3.09;100.00;96851.84;5108898;28;20031;-79
2020/12/09 04:19:46;;;;;;;2.92;2.05;;;;;;;3.12;100.00;96854.81;5095218;28;20114;-79
2020/12/09 04:22:11;;;;;;;2.40;2.15;;;;;;;3.18;100.00;96848.31;5102376;28;20024;-82
2020/12/09 04:24:37;;;;;;;2.92;2.13;;;;;;;3.14;100.00;96843.72;5116817;28;20032;-83
2020/12/09 04:27:02;;;;;;;3.78;2.17;;;;;;;3.00;100.00;96835.41;5113271;28;20023;-77
2020/12/09 04:29:28;;;;;;;7.63;3.45;;;;;;;3.00;100.00;96830.00;5112282;28;20217;-75
2020/12/09 04:31:53;;;;;;;4.55;2.95;;;;;;;3.02;100.00;96830.53;5112138;28;20057;-76
2020/12/09 04:34:20;;;;;;;4.78;2.63;;;;;;;3.02;100.00;96851.31;5112116;28;20018;-76
2020/12/09 04:36:47;;;;;;;3.97;2.38;;;;;;;3.09;100.00;96868.88;5112996;27;20106;-75
2020/12/09 04:39:13;;;;;;;4.82;2.45;;;;;;;3.12;100.00;96857.50;5110804;28;20028;-75
2020/12/09 04:41:38;;;;;;;5.88;3.30;;;;;;;3.19;100.00;96876.94;5111621;28;20406;-75
2020/12/09 04:44:03;;;;;;;;;;;;;;;3.13;100.00;96878.03;5110310;28;20039;-75
2020/12/09 04:46:30;;;;;;;10.68;2.40;;;;;;;3.13;100.00;96878.03;5110938;28;20339;-74
2020/12/09 04:49:03;;;;;;;3.05;2.30;;;;;;;3.11;100.00;96868.56;5109556;28;20797;-75
2020/12/09 04:51:34;;;;;;;4.45;2.78;;;;;;;3.16;100.00;96869.38;5111005;28;20038;-74
2020/12/09 04:54:00;;;;;;;5.45;2.80;;;;;;;3.07;100.00;96865.63;5109763;28;20058;-76
2020/12/09 04:56:54;;;;;;;4.50;2.80;;;;;;;3.11;100.00;96861.28;5113338;28;20063;-75
2020/12/09 04:59:24;;;;;;;3.63;2.83;;;;;;;3.10;100.00;96859.66;5106165;28;20525;-75
2020/12/09 05:02:03;;;;;;;5.53;2.90;;;;;;;3.05;100.00;96851.59;5124905;28;20038;-75
2020/12/09 05:04:32;;;;;;;8.27;4.05;;;;;;;3.05;100.00;96848.88;5121590;28;20081;-76
2020/12/09 05:07:00;;;;;;;6.00;3.45;;;;;;;2.99;100.00;96839.19;5120678;28;20523;-75
2020/12/09 05:09:27;;;;;;;5.57;3.35;;;;;;;3.01;100.00;96861.31;5119012;28;20027;-74
2020/12/09 05:12:02;;;;;;;5.05;3.40;;;;;;;2.98;100.00;96856.47;5115501;28;20039;-75
2020/12/09 05:14:29;;;;;;;4.78;3.25;;;;;;;2.93;100.00;96863.75;5114942;28;20031;-75
2020/12/09 05:16:59;;;;;;;6.50;3.25;;;;;;;2.92;100.00;96854.03;5115093;27;20080;-75
2020/12/09 05:19:25;;;;;;;6.43;2.83;;;;;;;2.92;100.00;96860.25;5114991;28;20011;-75
2020/12/09 05:21:50;;;;;;;4.57;2.78;;;;;;;2.93;100.00;96861.88;5114930;28;20024;-75
2020/12/09 05:24:19;;;;;;;3.38;2.47;;;;;;;2.98;100.00;96874.53;5114533;28;20096;-76
2020/12/09 05:26:45;;;;;;;3.55;2.90;;;;;;;2.96;100.00;96869.44;5114405;28;20032;-75
2020/12/09 05:29:18;;;;;;;3.45;2.35;;;;;;;3.01;100.00;96855.91;5113618;28;20027;-75
2020/12/09 05:31:45;;;;;;;3.35;2.53;;;;;;;2.97;100.00;96859.44;5114453;28;20045;-75
2020/12/09 05:34:22;;;;;;;4.78;2.63;;;;;;;2.98;100.00;96859.16;5114352;28;20031;-75
2020/12/09 05:36:53;;;;;;;3.58;2.85;;;;;;;3.01;100.00;96853.22;5114241;28;20030;-75
2020/12/09 05:39:19;;;;;;;3.40;2.55;;;;;;;3.02;100.00;96854.84;5110712;28;20020;-75
2020/12/09 05:41:44;;;;;;;3.10;2.50;;;;;;;3.00;100.00;96851.63;5102350;28;20020;-75
2020/12/09 05:44:10;;;;;;;3.45;2.92;;;;;;;2.99;100.00;96843.78;5101188;28;20524;-75
2020/12/09 05:46:52;;;;;;;;;;;;;;;3.04;100.00;96851.84;5100975;28;20031;-75
2020/12/09 05:49:27;;;;;;;2.92;2.33;;;;;;;3.09;100.00;96849.97;5102266;28;20372;-75
2020/12/09 05:52:10;;;;;;;3.75;3.30;;;;;;;3.17;100.00;96852.09;5103026;28;20419;-75
2020/12/09 05:54:38;;;;;;;7.22;2.90;;;;;;;3.14;100.00;96847.22;5103116;28;20020;-76
2020/12/09 05:57:05;;;;;;;11.45;4.32;;;;;;;3.11;100.00;96847.78;5101571;28;20031;-75
2020/12/09 05:59:57;;;;;;;7.28;3.38;;;;;;;3.04;100.00;96849.97;5102617;28;20024;-75
2020/12/09 06:02:27;;;;;;;5.60;3.80;;;;;;;3.04;100.00;96851.84;5097489;28;20134;-76
2020/12/09 06:05:00;;;;;;;3.78;2.97;;;;;;;3.07;100.00;96860.22;5103350;28;20023;-74
2020/12/09 06:07:30;;;;;;;5.50;3.53;;;;;;;3.10;100.00;96862.38;5101414;28;20494;-75
2020/12/09 06:10:04;;;;;;;4.65;2.95;;;;;;;3.18;100.00;96859.13;5102969;28;20031;-76
2020/12/09 06:12:48;;;;;;;5.38;3.63;;;;;;;3.34;100.00;96862.56;5103472;28;20477;-75
2020/12/09 06:15:18;;;;;;;4.10;3.50;;;;;;;3.29;100.00;96861.78;5102974;28;20429;-74
2020/12/09 06:17:44;;;;;;;5.47;3.90;;;;;;;3.23;100.00;96864.50;5101942;28;20030;-76
2020/12/09 06:20:10;;;;;;;3.38;2.95;;;;;;;3.15;100.00;96875.88;5099657;28;20130;-75
2020/12/09 06:22:35;;;;;;;3.65;2.80;;;;;;;3.11;100.00;96884.78;5102347;28;20115;-75
2020/12/09 06:25:05;;;;;;;;;;;;;;;3.08;100.00;96891.56;5099099;28;20048;-75
2020/12/09 06:27:34;;;;;;;5.50;3.40;;;;;;;3.05;100.00;96889.41;5102625;28;20007;-75
2020/12/09 06:30:00;;;;;;;14.40;7.93;;;;;;;3.03;100.00;96888.88;5100182;28;20046;-75
2020/12/09 06:32:26;;;;;;;13.85;6.60;;;;;;;3.08;100.00;96896.94;5099641;28;20499;-76
2020/12/09 06:35:07;;;;;;;9.05;4.70;;;;;;;3.12;100.00;96897.22;5102651;28;20024;-74
2020/12/09 06:37:33;;;;;;;5.60;3.60;;;;;;;3.00;100.00;96894.81;5098802;28;20024;-75
2020/12/09 06:40:12;;;;;;;5.90;4.20;;;;;;;3.19;100.00;96909.38;5078306;28;20039;-74
2020/12/09 06:42:38;;;;;;;9.13;4.80;;;;;;;3.24;100.00;96911.22;5100017;28;20109;-77
2020/12/09 06:45:05;;;;;;;6.35;4.35;;;;;;;3.24;100.00;96914.75;5085612;28;20485;-74
2020/12/09 06:47:31;;;;;;;5.10;3.97;;;;;;;3.19;100.00;96924.75;5096335;28;20134;-75
2020/12/09 06:49:57;;;;;;;5.60;3.13;;;;;;;3.20;100.00;96932.56;5097887;28;20032;-74
2020/12/09 06:52:33;;;;;;;3.50;2.95;;;;;;;3.16;100.00;96936.13;5101879;28;20558;-74
2020/12/09 06:55:00;;;;;;;6.10;4.32;;;;;;;3.21;100.00;96930.69;5092623;27;20532;-74
2020/12/09 06:57:35;;;;;;;4.95;3.40;;;;;;;3.23;100.00;96948.25;5092191;28;20032;-81
2020/12/09 07:00:10;;;;;;;6.80;3.58;;;;;;;3.30;100.00;96941.75;5092201;28;20057;-74
2020/12/09 07:02:35;;;;;;;4.40;2.88;;;;;;;3.30;100.00;96949.84;5106304;28;20031;-75
2020/12/09 07:05:01;;;;;;;5.65;3.10;;;;;;;3.28;100.00;96949.31;5105371;28;20121;-75
2020/12/09 07:07:38;;;;;;;;;;;;;;;3.26;100.00;96952.28;5090770;28;20046;-76
2020/12/09 07:10:09;;;;;;;2.72;2.17;;;;;;;3.22;100.00;96954.75;5090890;28;19973;-74
2020/12/09 07:12:35;;;;;;;2.70;2.10;;;;;;;3.20;100.00;96959.59;5090814;28;20067;-76
2020/12/09 07:15:00;;;;;;;3.63;2.58;;;;;;;3.14;100.00;96958.00;5090203;28;20056;-75
2020/12/09 07:17:27;;;;;;;2.70;2.00;;;;;;;3.15;100.00;96967.72;5095625;28;20072;-76
2020/12/09 07:19:55;;;;;;;3.72;2.67;;;;;;;3.10;100.00;96967.72;5106128;28;20028;-75
2020/12/09 07:22:22;;;;;;;3.63;1.60;;;;;;;3.11;100.00;96971.22;5094810;28;20020;-75
2020/12/09 07:24:47;;;;;;;2.88;2.63;;;;;;;3.04;100.00;96971.50;5110250;28;20027;-75
2020/12/09 07:27:13;;;;;;;2.53;1.90;;;;;;;3.07;100.00;96970.94;5108930;28;20023;-75
2020/12/09 07:29:40;;;;;;;5.38;2.70;;;;;;;3.12;100.00;96979.06;5106265;28;20374;-75
2020/12/09 07:32:07;;;;;;;3.15;2.35;;;;;;;3.07;100.00;96981.75;5093141;28;20016;-75
2020/12/09 07:34:48;;;;;;;3.97;2.53;;;;;;;2.97;100.00;96984.50;5088070;28;20431;-75
2020/12/09 07:37:18;;;;;;;2.15;2.00;;;;;;;3.08;100.00;96971.75;5090728;28;20046;-74
2020/12/09 07:39:44;;;;;;;1.50;1.20;;;;;;;2.97;99.64;96980.97;5103164;28;20055;-75
2020/12/09 07:42:10;;;;;;;1.42;1.30;;;;;;;2.98;99.70;96972.59;5110935;28;20070;-75
2020/12/09 07:44:40;;;;;;;;;;;;;;;3.08;99.83;96987.97;5097566;28;20065;-76
2020/12/09 07:47:05;;;;;;;4.95;1.80;;;;;;;3.03;100.00;96991.50;5089010;28;20009;-76
2020/12/09 07:49:31;;;;;;;1.98;1.60;;;;;;;3.02;100.00;96983.66;5089501;28;20028;-77
2020/12/09 07:51:58;;;;;;;2.25;1.67;;;;;;;3.01;100.00;96974.75;5088736;28;20042;-76
2020/12/09 07:54:26;;;;;;;2.83;1.70;;;;;;;3.04;98.59;96982.31;5087838;28;20024;-76
2020/12/09 07:56:52;;;;;;;2.05;1.42;;;;;;;3.08;98.69;96979.88;5087580;28;20024;-77
2020/12/09 07:59:18;;;;;;;2.03;1.80;;;;;;;3.05;99.71;96983.13;5090941;28;20114;-74
2020/12/09 08:01:43;;;;;;;1.52;1.42;;;;;;;2.92;99.71;96973.66;5098646;28;20118;-73
2020/12/09 08:04:11;;;;;;;;;;;;;;;2.99;100.00;96993.13;5098248;28;20024;-75
2020/12/09 08:06:37;;;;;;;1.48;1.38;;;;;;;2.75;99.13;96973.16;5095117;28;19930;-77
2020/12/09 08:09:41;;;;;;;4.40;1.27;;;;;;;2.91;98.72;97009.06;5097317;28;20423;-75
2020/12/09 08:12:06;;;;;;;2.38;1.90;;;;;;;2.91;98.84;97001.78;5097311;28;20074;-76
2020/12/09 08:14:32;;;;;;;0.88;0.88;;;;;;;2.89;98.33;97009.31;5107647;28;20062;-75
2020/12/09 08:16:58;;;;;;;0.90;0.90;;;;;;;3.09;99.25;97012.03;5103546;28;20114;-76
2020/12/09 08:19:23;;;;;;;1.50;1.13;;;;;;;2.99;97.38;97020.13;5089598;28;20552;-75
2020/12/09 08:22:03;;;;;;;;;;;;;;;2.88;97.51;97028.50;5090033;28;20049;-74
2020/12/09 08:24:28;;;;;;;0.88;0.80;;;;;;;2.89;97.59;97038.19;5088905;28;20469;-76
2020/12/09 08:26:55;;;;;;;1.05;0.70;;;;;;;2.77;97.36;97040.34;5088837;28;20048;-75
2020/12/09 08:29:20;;;;;;;2.22;1.17;;;;;;;2.77;98.02;97029.56;5095072;28;20388;-76
2020/12/09 08:31:46;;;;;;;0.98;0.90;;;;;;;2.78;98.13;97037.41;5088184;28;20028;-76
2020/12/09 08:34:14;;;;;;;1.67;1.23;;;;;;;2.76;97.80;97044.16;5096753;28;20024;-74
2020/12/09 08:36:40;;;;;;;0.77;0.77;;;;;;;2.61;96.96;97004.44;5103282;28;20024;-75
2020/12/09 08:39:06;;;;;;;1.40;1.20;;;;;;;2.83;97.18;97033.88;5091046;28;20024;-76
2020/12/09 08:41:36;;;;;;;3.38;1.77;;;;;;;2.86;96.68;97047.66;5108729;28;20022;-74
2020/12/09 08:44:06;;;;;;;2.67;1.38;;;;;;;2.86;96.29;97042.25;5106551;28;20769;-75
2020/12/09 08:46:32;;;;;;;2.58;1.60;;;;;;;2.81;97.20;97054.94;5108586;28;20481;-74
2020/12/09 08:48:58;;;;;;;1.15;1.05;;;;;;;2.80;96.53;97051.44;5108508;28;20028;-75
2020/12/09 08:51:26;;;;;;;2.65;1.67;;;;;;;2.81;96.28;97042.25;5108921;28;20032;-75
2020/12/09 08:53:52;;;;;;;1.83;1.23;;;;;;;2.89;97.16;97062.50;5108765;28;20149;-76
2020/12/09 08:56:31;;;;;;;1.45;1.35;;;;;;;2.92;97.35;97059.25;5102332;28;20400;-75
2020/12/09 08:58:58;;;;;;;1.90;1.70;;;;;;;3.03;98.27;97061.72;5097396;28;20020;-76
2020/12/09 09:01:23;;;;;;;2.28;1.33;;;;;;;3.01;98.50;97068.44;5095478;28;20181;-75
2020/12/09 09:03:54;;;;;;;8.15;1.63;;;;;;;3.00;98.66;97062.28;5099120;28;20247;-74
2020/12/09 09:06:20;;;;;;;1.13;1.02;;;;;;;2.85;98.02;97056.81;5095361;28;20115;-74
2020/12/09 09:08:45;;;;;;;0.98;0.93;;;;;;;2.82;98.11;97062.75;5094612;28;20032;-75
2020/12/09 09:11:20;;;;;;;2.60;1.75;;;;;;;2.89;98.86;97081.41;5094627;28;20481;-75
2020/12/09 09:13:46;;;;;;;2.33;1.08;;;;;;;2.82;98.60;97068.16;5096503;28;20063;-75
2020/12/09 09:16:11;;;;;;;4.82;1.65;;;;;;;2.87;98.85;97073.59;5096312;28;20560;-74
2020/12/09 09:18:36;;;;;;;;;;;;;;;2.88;99.33;97074.41;5099983;28;20085;-75
2020/12/09 09:21:02;;;;;;;7.50;1.55;;;;;;;3.07;99.57;97079.00;5097139;28;19919;-74
2020/12/09 09:23:28;;;;;;;1.40;1.30;;;;;;;3.01;98.93;97063.88;5100913;28;20396;-75
2020/12/09 09:25:53;;;;;;;1.63;1.40;;;;;;;2.94;98.38;97057.13;5108605;28;20024;-74
2020/12/09 09:28:19;;;;;;;1.20;1.05;;;;;;;3.13;98.83;97069.81;5108914;28;20035;-75
2020/12/09 09:30:44;;;;;;;;;;;;;;;3.49;99.51;97072.50;5108137;28;20024;-75
2020/12/09 09:33:10;;;;;;;3.13;1.92;;;;;;;3.89;97.95;97068.91;5094910;28;19944;-74
2020/12/09 09:35:35;;;;;;;4.10;2.08;;;;;;;3.40;96.65;97049.81;5087746;28;20023;-74
2020/12/09 09:38:00;;;;;;;3.28;2.22;;;;;;;3.45;96.85;97064.13;5089681;28;20079;-76
2020/12/09 09:40:26;;;;;;;2.03;1.75;;;;;;;3.40;96.78;97074.16;5091068;28;20040;-75
2020/12/09 09:42:51;;;;;;;2.80;2.60;;;;;;;3.26;97.60;97037.97;5088175;28;20493;-74
2020/12/09 09:45:17;;;;;;;4.00;2.15;;;;;;;3.28;98.24;97054.69;5088044;28;20032;-75
2020/12/09 09:47:42;;;;;;;2.88;2.28;;;;;;;3.35;98.81;97047.13;5088760;28;20039;-75
2020/12/09 09:50:08;;;;;;;;;;;;;;;3.37;98.83;97058.47;5088015;28;20489;-75
2020/12/09 09:52:35;;;;;;;2.50;1.88;;;;;;;3.32;97.79;97069.31;5088592;28;19927;-75
2020/12/09 09:55:01;;;;;;;2.08;1.58;;;;;;;3.14;96.98;97068.75;5088094;28;20416;-75
2020/12/09 09:57:26;;;;;;;3.13;1.95;;;;;;;3.10;98.18;97070.34;5095031;28;20035;-75
2020/12/09 09:59:53;;;;;;;;;;;;;;;3.20;98.25;97070.38;5111594;28;20392;-75
2020/12/09 10:02:18;;;;;;;2.50;1.13;;;;;;;3.19;98.02;97066.06;5113237;28;19915;-78
2020/12/09 10:04:45;;;;;;;1.83;1.40;;;;;;;3.22;98.15;97043.91;5112414;28;20047;-77
2020/12/09 10:07:11;;;;;;;2.65;1.67;;;;;;;3.39;98.25;97073.34;5106507;28;20902;-76
2020/12/09 10:09:36;;;;;;;4.13;2.28;;;;;;;3.46;97.75;97073.06;5112012;28;20055;-75
2020/12/09 10:12:01;;;;;;;2.85;1.70;;;;;;;3.38;97.61;97079.03;5111019;28;20026;-75
2020/12/09 10:14:27;;;;;;;2.97;1.60;;;;;;;3.43;97.74;97073.59;5110527;28;20023;-75
2020/12/09 10:16:52;;;;;;;5.30;2.38;;;;;;;3.57;98.06;97089.00;5102708;28;20127;-73
2020/12/09 10:19:18;;;;;;;2.42;2.17;;;;;;;3.43;98.72;97077.13;5092427;28;20024;-74
2020/12/09 10:21:43;;;;;;;4.25;2.05;;;;;;;3.20;98.33;97078.47;5092209;28;20051;-74
2020/12/09 10:24:09;;;;;;;2.22;1.70;;;;;;;3.10;99.05;97083.06;5092612;28;20023;-75
2020/12/09 10:26:43;;;;;;;3.42;2.72;;;;;;;3.09;98.90;97070.63;5091067;28;20020;-75
2020/12/09 10:29:09;;;;;;;2.63;1.95;;;;;;;3.11;99.21;97069.28;5092441;28;20109;-75
2020/12/09 10:31:41;;;;;;;4.68;2.20;;;;;;;3.07;98.98;97079.00;5111376;28;20027;-75
2020/12/09 10:34:09;;;;;;;2.63;2.35;;;;;;;3.09;99.65;97082.25;5111642;28;20027;-75
2020/12/09 10:36:35;;;;;;;4.35;3.00;;;;;;;3.06;99.54;97066.59;5110358;28;20020;-75
2020/12/09 10:39:03;;;;;;;2.58;1.80;;;;;;;3.13;99.86;97066.31;5111753;28;20392;-74
2020/12/09 10:41:29;;;;;;;3.42;2.13;;;;;;;3.13;99.42;97075.22;5091575;28;20068;-74
2020/12/09 10:43:55;;;;;;;3.00;2.63;;;;;;;3.30;99.79;97076.84;5091030;28;20075;-75
2020/12/09 10:46:21;;;;;;;3.35;1.60;;;;;;;3.29;99.36;97070.63;5091149;28;20039;-74
2020/12/09 10:48:47;;;;;;;4.18;2.50;;;;;;;3.32;98.21;97075.50;5094503;28;20044;-74
2020/12/09 10:51:13;;;;;;;15.30;4.82;;;;;;;3.53;96.42;97081.72;5089653;28;20032;-76
2020/12/09 10:53:38;;;;;;;8.40;5.50;;;;;;;3.38;97.15;97085.25;5088141;28;20050;-76
2020/12/09 10:56:04;;;;;;;;;;;;;;;3.33;97.96;97079.00;5091065;28;20027;-75
2020/12/09 10:58:29;;;;;;;3.83;2.80;;;;;;;3.30;98.23;97082.25;5091596;28;19961;-75
2020/12/09 11:00:56;;;;;;;2.47;2.20;;;;;;;3.20;98.62;97078.47;5091585;28;20024;-76
2020/12/09 11:03:23;;;;;;;3.50;2.72;;;;;;;3.08;97.76;97074.41;5090860;28;20016;-75
2020/12/09 11:05:48;;;;;;;4.28;2.75;;;;;;;3.23;97.93;97080.63;5095823;28;20032;-74
2020/12/09 11:08:14;;;;;;;6.55;4.10;;;;;;;3.32;98.04;97083.59;5108634;28;20468;-75
2020/12/09 11:10:40;;;;;;;4.28;3.35;;;;;;;3.17;99.56;97061.97;5111008;28;20072;-74
2020/12/09 11:13:06;;;;;;;3.95;2.83;;;;;;;3.14;100.00;97073.34;5109527;28;20012;-75
2020/12/09 11:15:32;;;;;;;2.88;2.40;;;;;;;3.05;100.00;97073.06;5108217;28;20023;-76
2020/12/09 11:17:58;;;;;;;5.97;3.17;;;;;;;3.02;100.00;97075.50;5089197;28;20476;-74
2020/12/09 11:20:25;;;;;;;5.13;2.67;;;;;;;3.07;100.00;97073.59;5090659;28;20080;-75
2020/12/09 11:22:50;;;;;;;7.00;3.03;;;;;;;3.06;100.00;97072.00;5090406;28;20120;-75
2020/12/09 11:25:16;;;;;;;5.70;3.30;;;;;;;3.00;100.00;97072.25;5089852;28;20121;-75
2020/12/09 11:27:41;;;;;;;3.63;2.80;;;;;;;3.11;100.00;97063.06;5090417;28;20431;-74
2020/12/09 11:30:07;;;;;;;10.55;4.05;;;;;;;3.16;100.00;97047.66;5096382;28;20020;-74
2020/12/09 11:32:33;;;;;;;4.80;3.03;;;;;;;3.04;100.00;97055.22;5110222;28;20042;-75
2020/12/09 11:34:59;;;;;;;5.35;3.33;;;;;;;3.03;100.00;97050.94;5112635;28;20035;-76
2020/12/09 11:37:24;;;;;;;8.63;3.67;;;;;;;3.12;100.00;97065.50;5112262;28;20036;-76
2020/12/09 11:39:50;;;;;;;3.67;3.13;;;;;;;3.01;100.00;97063.88;5109490;28;20027;-76
2020/12/09 11:42:15;;;;;;;3.08;2.65;;;;;;;3.03;100.00;97056.31;5110496;28;20023;-76